UATG/GUW METAR and TAF weather

Enter ICAO airport designator
Station Type Date Time Source
UATG METAR 2021/05/14 04:30 UTC NOAA

UATG 140430Z 14010MPS CAVOK 27/01 Q1021 R14/CLRD70 NOSIG RMK QFE768/1024


Station Type Date Time Source
UATG Decoded METAR 2021/05/14 04:30 UTC NOAA

Station name not available
May 14, 2021 - 12:30 AM EDT / 2021.05.14 0430 UTC
Wind: from the SE (140 degrees) at 22 MPH (19 KT):0
Visibility: greater than 7 mile(s):0
Temperature: 80 F (27 C)
Dew Point: 33 F (1 C)
Relative Humidity: 18%
Pressure (altimeter): 30.15 in. Hg (1021 hPa)
ob: UATG 140430Z 14010MPS CAVOK 27/01 Q1021 R14/CLRD70 NOSIG RMK QFE768/1024
cycle: 4

Station Type Date Time Source
UATG TAF 2021/05/13 18:21 UTC NOAA

TAF UATG 131702Z 1318/1418 12008MPS 9999 SCT033CB TX33/1412Z TN19/1401Z
BECMG 1404/1406 13008G13MPS
BECMG 1414/1416 12008MPS

Example: see airport list